createdAt,value
2023-01-02T07:38:01.719Z,78.13
2023-01-02T07:40:32.349Z,75.57
2023-01-02T07:43:00.111Z,79.30
2023-01-02T07:47:55.494Z,82.85
2023-01-02T07:50:23.096Z,75.78
2023-01-02T07:55:18.069Z,76.50
2023-01-02T07:57:48.268Z,77.35
2023-01-02T08:00:17.634Z,77.75
2023-01-02T08:02:45.170Z,75.90
2023-01-02T08:05:12.659Z,75.38
2023-01-02T08:07:44.824Z,77.22
2023-01-02T08:10:12.886Z,78.65
2023-01-02T08:12:40.507Z,85.57
2023-01-02T08:15:08.171Z,82.85
2023-01-02T08:17:35.679Z,82.57
2023-01-02T08:20:08.123Z,81.93
2023-01-02T08:22:35.960Z,76.10
2023-01-02T08:25:03.422Z,76.25
2023-01-02T08:27:31.179Z,75.70
2023-01-02T08:29:58.726Z,75.07
2023-01-02T08:32:26.263Z,76.75
2023-01-02T08:39:48.725Z,74.70
2023-01-02T08:42:16.226Z,72.93
2023-01-02T08:44:43.725Z,71.43
2023-01-02T08:47:11.242Z,69.97
2023-01-02T08:49:38.777Z,66.78
2023-01-02T10:18:43.549Z,112.97
2023-01-02T10:21:18.421Z,121.57
2023-01-02T10:24:06.111Z,113.93
2023-01-02T10:26:34.099Z,114.93
2023-01-02T10:29:01.595Z,112.40
2023-01-02T10:31:38.438Z,108.35
2023-01-02T10:34:09.159Z,103.80
2023-01-02T10:36:43.288Z,105.15
2023-01-02T10:39:13.982Z,105.55
2023-01-02T10:49:08.137Z,92.72
2023-01-02T10:51:36.124Z,93.30
2023-01-02T10:54:07.730Z,92.72
2023-01-02T10:56:39.139Z,88.63
2023-01-02T10:59:17.930Z,86.20
2023-01-02T11:01:52.564Z,80.15
2023-01-02T11:04:24.454Z,74.70
2023-01-02T11:06:59.077Z,65.20
2023-01-02T11:09:30.244Z,65.53
2023-01-02T11:11:58.891Z,64.03
2023-01-02T11:14:30.566Z,62.97
2023-01-02T11:17:24.435Z,59.50
2023-01-02T11:37:03.610Z,65.10
2023-01-02T11:39:31.712Z,66.72
2023-01-02T11:42:22.592Z,67.37
2023-01-02T12:16:49.272Z,56.88
2023-01-02T12:19:20.891Z,72.65
2023-01-02T12:21:52.932Z,70.07
2023-01-02T12:32:06.221Z,48.28
2023-01-02T13:42:27.905Z,38.88
2023-01-02T13:46:06.142Z,43.67
2023-01-02T13:48:39.811Z,48.47
2023-01-02T13:51:10.699Z,56.25
2023-01-02T13:53:41.202Z,62.03
2023-01-02T13:56:22.880Z,65.97
2023-01-02T13:58:59.581Z,59.35
2023-01-02T14:01:29.081Z,59.60
2023-01-02T15:07:43.191Z,252.70
2023-01-02T20:29:05.309Z,216.90
2023-01-02T20:34:00.450Z,208.23
2023-01-02T20:36:28.138Z,218.40
